Hit Tracker is now ESPN Home Run Tracker! Hit Tracker founder Greg Rybarczyk is now collaborating with the ESPN Stats & Information Group to continue tracking all MLB home runs, and helping baseball fans know "How Far It Really Went!™" Please credit any information on this site to ESPN Stats & Information Group. For more information and analysis on home runs, please contact founder Greg Rybarczyk. E-Mail ESPN Home Run Tracker
Main Page | Ballparks | Park Overlays | Glossary | Highlight Homers | Feedback | Bio | 3 Types of HR's | AAA Home Run Derby Last Updated: July 3, 2015, 10:31 pm PST
Welcome to the ESPN Home Run Tracker! Check out the ESPN MLB Scoreboard throughout the 2015 season! Contact us at grybar@hittrackeronline.com.
Season:
Ballpark detail for Citi Field
Ballpark # of Home Runs HR per game Avg.
True
Distance
Avg.
Speed
Off
Bat
Avg.
Std.
Dist.
Citi Field 72 1.67 396.5 103.2 394.4

Scatter Plot of Home Runs Citi Field
 Overlay Ballpark:
Without range rings   With range rings

2015 Season Home Runs for Citi Field
Click headers to sort
Date Video Path Hitter Hitter
Team
Pitcher Pitcher
Team
INN Ballpark Type/
Luck
True
Dist.
Speed
Off
Bat
Elev.
Angle
Horiz.
Angle
Apex Impact Due To: Std.
Dist.
#
Parks
Wind Temp. ^ Alt.
06/13/15 Video View Freeman, Freddie ATL deGrom, Jacob NYM 1 Citi Field ND 437 110.2 30.1 76.0 126 -10 3 0 443 30
06/14/15 Video View Herrera, Dilson NYM Foltynewicz, Mike ATL 4 Citi Field PL 372 99.3 34.7 115.6 111 0 3 0 368 30
05/17/15 Video View Granderson, Curtis NYM Peralta, Wily MIL 1 Citi Field PL 396 104.3 33.6 68.6 122 -4 2 0 397 30
06/11/15 Video View Crawford, Brandon SF Niese, Jonathon NYM 6 Citi Field PL 411 101.9 28.7 82.9 101 -2 2 0 411 27
06/14/15 Video View Ceciliani, Darrell NYM Foltynewicz, Mike ATL 4 Citi Field PL 396 101.0 32.2 70.7 105 5 2 0 388 30
06/14/15 Video View d'Arnaud, Travis NYM Cunniff, Brandon ATL 5 Citi Field PL 386 102.4 30.2 123.4 84 6 2 0 378 30
05/25/15 Video View Duda, Lucas NYM Gonzalez, Severino PHI 3 Citi Field ND 436 109.4 25.6 73.6 82 7 1 0 429 30
05/25/15 Video View Cuddyer, Michael NYM Gonzalez, Severino PHI 4 Citi Field ND 442 106.7 28.3 99.5 102 7 1 0 434 30
05/25/15 Video View Flores, Wilmer NYM De Fratus, Justin PHI 6 Citi Field PL 372 98.3 32.8 114.6 100 3 1 0 368 26
05/27/15 Video View Cuddyer, Michael NYM O'Sullivan, Sean PHI 3 Citi Field ND 424 108.7 28.3 112.2 94 1 1 0 422 30
05/30/15 Video View Realmuto, J.T. MIA Niese, Jonathon NYM 4 Citi Field PL 384 104.9 25.9 119.6 69 4 1 0 380 30
05/31/15 Video View Flores, Wilmer NYM Phelps, David MIA 3 Citi Field JE 378 99.3 26.4 103.4 80 -3 1 0 380 13
06/09/15 Video View Duffy, Matt SF Syndergaard, Noah NYM 6 Citi Field PL 375 97.3 30.4 108.1 90 2 1 0 372 16
06/09/15 Video View Panik, Joe SF Gee, Dillon NYM 7 Citi Field PL 383 100.1 30.2 65.7 87 4 1 0 377 29
06/10/15 Video View Panik, Joe SF Harvey, Matt NYM 1 Citi Field PL 389 99.0 32.3 75.6 106 5 1 0 384 27
06/12/15 Video View Flores, Wilmer NYM Wood, Alex ATL 2 Citi Field JE/L 384 96.2 34.4 101.9 111 14 1 0 369 1
06/12/15 Video View Mayberry Jr., John NYM Wood, Alex ATL 4 Citi Field JE/L 384 96.1 33.0 101.7 104 10 1 0 372 1
06/14/15 Video View Peterson, Jace ATL Gee, Dillon NYM 2 Citi Field JE 388 103.8 25.1 69.4 68 2 1 0 385 27
06/14/15 Video View Lagares, Juan NYM Avilan, Luis ATL 6 Citi Field PL 368 101.2 28.0 124.0 72 2 1 0 365 29
06/26/15 Video View Granderson, Curtis NYM Cueto, Johnny CIN 1 Citi Field PL 400 104.8 31.8 68.1 112 -3 1 0 403 30
07/02/15 Video View Montero, Miguel CHC Torres, Alex NYM 9 Citi Field PL 399 101.9 29.2 75.2 97 -2 1 0 400 30
05/15/15 Video View Braun, Ryan MIL Torres, Carlos NYM 8 Citi Field JE/L 378 97.0 27.7 77.3 77 6 0 0 373 6
05/16/15 Video View Flores, Wilmer NYM Garza, Matt MIL 4 Citi Field JE 391 100.6 25.1 98.9 74 1 0 0 391 5
05/16/15 Video View Plawecki, Kevin NYM Cotts, Neal MIL 7 Citi Field PL 394 101.3 27.8 105.5 85 2 0 0 393 30
05/19/15 Video View Reynolds, Mark STL Niese, Jonathon NYM 4 Citi Field PL 400 108.9 23.1 110.1 64 1 0 0 400 30
05/01/15 Video View Cuddyer, Michael NYM Scherzer, Max WSH 4 Citi Field JE 416 108.1 20.8 85.2 65 -1 0 0 417 20
05/05/15 Video View Machado, Manny BAL Colon, Bartolo NYM 8 Citi Field PL 399 100.7 27.6 99.4 89 0 0 0 399 21
05/05/15 Video View Davis, Chris BAL Familia, Jeurys NYM 9 Citi Field PL 411 108.9 20.9 98.9 62 1 0 0 410 23
05/06/15 Video View Granderson, Curtis NYM Jimenez, Ubaldo BAL 3 Citi Field JE 363 110.7 20.7 54.1 47 0 0 0 363 25
04/14/15 Video View Murphy, Daniel NYM McGowan, Dustin PHI 7 Citi Field JE 397 108.9 19.7 81.2 55 1 0 0 397 10
04/15/15 Video View Duda, Lucas NYM Williams, Jerome PHI 5 Citi Field PL 436 110.4 21.4 84.2 75 3 0 0 434 27
04/17/15 Video View Stanton, Giancarlo MIA Colon, Bartolo NYM 1 Citi Field JE/L 388 98.1 28.5 82.9 92 -2 0 0 389 11
04/18/15 Video View Flores, Wilmer NYM Urena, Jose MIA 6 Citi Field PL 375 96.5 33.8 108.5 104 10 0 0 365 9
04/18/15 Video View Morse, Michael MIA Torres, Carlos NYM 9 Citi Field JE/L 419 102.6 26.2 88.2 87 3 0 0 416 23
04/21/15 Video View Maybin, Cameron ATL Niese, Jonathon NYM 7 Citi Field JE 376 101.9 24.2 106.6 67 0 0 0 376 0
05/27/15 Video View Duda, Lucas NYM O'Sullivan, Sean PHI 1 Citi Field PL 425 102.9 27.0 86.3 89 5 0 0 418 24
05/27/15 Video View Syndergaard, Noah NYM O'Sullivan, Sean PHI 4 Citi Field PL 430 105.4 25.3 93.7 88 1 0 0 429 28
05/27/15 Video View Duda, Lucas NYM O'Sullivan, Sean PHI 5 Citi Field ND 429 111.6 21.8 79.6 67 0 0 0 430 30
05/29/15 Video View Bour, Justin MIA Harvey, Matt NYM 4 Citi Field PL 362 97.9 30.9 56.8 80 6 0 0 356 29
05/29/15 Video View Duda, Lucas NYM Haren, Dan MIA 4 Citi Field PL 397 104.8 35.3 68.7 132 7 0 0 391 30
05/29/15 Video View Granderson, Curtis NYM Haren, Dan MIA 6 Citi Field PL 406 102.9 29.8 74.4 100 2 0 0 405 30
05/30/15 Video View Stanton, Giancarlo MIA Niese, Jonathon NYM 3 Citi Field PL 419 109.9 19.8 85.5 60 -2 0 0 421 23
05/30/15 Video View Stanton, Giancarlo MIA Torres, Alex NYM 9 Citi Field ND 466 114.5 25.1 103.5 94 5 0 0 462 30
05/30/15 Video View Baker, Jeff MIA Torres, Alex NYM 9 Citi Field JE 404 99.0 32.2 99.5 111 13 0 0 390 1
05/31/15 Video View Bour, Justin MIA Colon, Bartolo NYM 6 Citi Field JE 409 101.8 26.1 85.0 86 0 0 0 408 16
06/10/15 Video View Belt, Brandon SF Harvey, Matt NYM 6 Citi Field PL 385 98.0 30.7 101.5 100 1 0 0 384 12
06/10/15 Video View Maxwell, Justin SF Harvey, Matt NYM 6 Citi Field PL 401 106.2 25.9 111.8 76 0 0 0 401 30
06/15/15 Video View Bautista, Jose TOR Familia, Jeurys NYM 9 Citi Field JE 355 104.3 23.6 125.5 54 0 0 0 355 25
06/28/15 Video View Phillips, Brandon CIN Matz, Steven NYM 1 Citi Field JE 377 105.3 21.4 104.6 55 -1 0 0 378 3
06/28/15 Video View Frazier, Todd CIN Matz, Steven NYM 4 Citi Field PL 378 100.1 32.5 114.3 102 0 0 0 377 30
07/02/15 Video View Herrera, Jonathan CHC deGrom, Jacob NYM 6 Citi Field JE 380 99.7 27.1 74.7 80 -2 0 0 382 22
05/15/15 Video View Parra, Gerardo MIL Colon, Bartolo NYM 5 Citi Field PL 425 106.1 25.8 80.5 88 1 -1 0 425 29
05/16/15 Video View Granderson, Curtis NYM Cotts, Neal MIL 7 Citi Field PL 370 99.4 30.9 61.1 87 2 -1 0 369 28
05/20/15 Video View Heyward, Jason STL Colon, Bartolo NYM 4 Citi Field PL 410 103.2 24.7 85.9 86 -1 -1 0 412 19
05/20/15 Video View Adams, Matt STL Colon, Bartolo NYM 4 Citi Field ND 419 112.9 21.1 76.2 64 0 -1 0 420 29
05/06/15 Video View Herrera, Dilson NYM Brach, Brad BAL 6 Citi Field JE 362 96.6 30.9 111.3 89 -1 -1 0 364 17
04/14/15 Video View Utley, Chase PHI Harvey, Matt NYM 1 Citi Field JE 350 97.2 28.8 60.8 73 -1 -1 0 352 20
04/14/15 Video View Asche, Cody PHI Harvey, Matt NYM 4 Citi Field PL 398 104.3 27.6 70.4 87 -2 -1 0 401 30
04/14/15 Video View Utley, Chase PHI Gilmartin, Sean NYM 8 Citi Field JE 385 99.7 26.5 78.5 81 -1 -1 0 387 17
04/14/15 Video View Francoeur, Jeff PHI Familia, Jeurys NYM 9 Citi Field PL 383 102.2 28.9 115.1 85 0 -1 0 385 30
04/15/15 Video View d'Arnaud, Travis NYM Williams, Jerome PHI 3 Citi Field JE/L 354 102.1 24.8 122.3 59 -1 -1 0 355 22
04/18/15 Video View d'Arnaud, Travis NYM Latos, Mat MIA 3 Citi Field ND 408 109.5 24.1 111.4 70 1 -1 0 408 30
06/15/15 Video View Bautista, Jose TOR Syndergaard, Noah NYM 1 Citi Field ND 426 110.0 27.7 111.8 94 -1 -1 0 428 30
06/27/15 Video View Granderson, Curtis NYM Lorenzen, Michael CIN 3 Citi Field PL 394 97.3 31.2 103.5 93 17 -1 0 378 8
05/15/15 Video View Braun, Ryan MIL Colon, Bartolo NYM 3 Citi Field ND 425 109.0 30.3 114.1 108 5 -2 0 423 30
05/19/15 Video View Murphy, Daniel NYM Wacha, Michael STL 4 Citi Field JE/L 334 96.3 40.2 62.1 130 8 -2 0 328 5
05/21/15 Video View Duda, Lucas NYM Garcia, Jaime STL 6 Citi Field ND 446 108.3 26.8 81.5 98 5 -2 0 442 30
05/21/15 Video View Duda, Lucas NYM Choate, Randy STL 8 Citi Field PL 427 105.6 26.7 81.5 95 2 -2 0 427 30
04/16/15 Video View Stanton, Giancarlo MIA Gee, Dillon NYM 1 Citi Field PL 390 100.3 29.0 75.3 94 1 -2 0 391 25
04/16/15 Video View Prado, Martin MIA Gee, Dillon NYM 4 Citi Field PL 400 101.6 28.4 102.5 94 2 -2 0 401 30
04/22/15 Video View Flores, Wilmer NYM Martin, Cody ATL 7 Citi Field JE 370 98.9 27.2 109.8 75 1 -2 0 370 16
04/16/15 Video View Flores, Wilmer NYM Cosart, Jarred MIA 5 Citi Field PL 401 101.5 31.6 103.8 110 6 -4 0 399 30


About HitTracker | Contact Us
© 2006-2015 HitTrackerOnline